createdAt,value
2023-01-20T00:01:00.410Z,100262.50
2023-01-20T00:06:01.995Z,100265.56
2023-01-20T00:11:07.499Z,100262.88
2023-01-20T00:16:09.889Z,100264.72
2023-01-20T00:21:12.621Z,100282.84
2023-01-20T00:26:19.144Z,100265.34
2023-01-20T00:31:27.216Z,100275.25
2023-01-20T00:36:31.147Z,100267.22
2023-01-20T00:41:32.687Z,100266.97
2023-01-20T00:46:34.175Z,100264.03
2023-01-20T00:51:35.684Z,100259.38
2023-01-20T00:56:37.149Z,100260.16
2023-01-20T01:01:38.670Z,100271.38
2023-01-20T01:06:40.184Z,100299.94
2023-01-20T01:11:41.636Z,100312.41
2023-01-20T01:16:43.122Z,100324.50
2023-01-20T01:21:44.792Z,100338.63
2023-01-20T01:26:46.302Z,100340.97
2023-01-20T01:31:47.810Z,100349.19
2023-01-20T01:36:49.417Z,100347.75
2023-01-20T01:41:50.873Z,100356.13
2023-01-20T01:46:52.346Z,100343.84
2023-01-20T01:51:59.037Z,100341.22
2023-01-20T01:57:00.664Z,100344.19
2023-01-20T02:02:02.318Z,100345.59
2023-01-20T02:07:05.923Z,100348.09
2023-01-20T02:12:10.879Z,100344.50
2023-01-20T02:17:35.569Z,100358.03
2023-01-20T02:22:51.069Z,100366.91
2023-01-20T02:28:35.223Z,100370.63
2023-01-20T02:34:02.698Z,100372.25
2023-01-20T02:39:09.177Z,100370.25
2023-01-20T02:44:20.850Z,100375.97
2023-01-20T02:49:45.555Z,100377.47
2023-01-20T02:54:49.354Z,100386.34
2023-01-20T02:59:52.871Z,100391.31
2023-01-20T03:05:10.517Z,100388.47
2023-01-20T03:10:14.652Z,100398.47
2023-01-20T03:15:16.601Z,100401.88
2023-01-20T03:20:18.353Z,100402.09
2023-01-20T03:25:19.921Z,100409.50
2023-01-20T03:30:21.886Z,100414.72
2023-01-20T03:35:23.350Z,100416.78
2023-01-20T03:40:25.260Z,100424.09
2023-01-20T03:45:38.937Z,100426.22
2023-01-20T03:50:58.022Z,100433.06
2023-01-20T03:56:23.023Z,100424.44
2023-01-20T04:01:27.197Z,100430.44
2023-01-20T04:06:28.757Z,100435.25
2023-01-20T04:11:30.217Z,100441.91
2023-01-20T04:16:31.690Z,100433.38
2023-01-20T04:21:34.925Z,100456.16
2023-01-20T04:26:36.390Z,100468.44
2023-01-20T04:31:37.972Z,100469.31
2023-01-20T04:36:39.481Z,100488.47
2023-01-20T04:41:41.270Z,100479.91
2023-01-20T04:46:42.832Z,100494.09
2023-01-20T04:51:44.346Z,100503.13
2023-01-20T04:56:47.560Z,100502.69
2023-01-20T05:01:49.149Z,100525.16
2023-01-20T05:06:50.665Z,100539.97
2023-01-20T05:11:52.116Z,100540.50
2023-01-20T05:16:53.597Z,100534.09
2023-01-20T05:21:55.085Z,100547.81
2023-01-20T05:26:58.408Z,100539.31
2023-01-20T05:31:59.880Z,100528.53
2023-01-20T05:37:01.343Z,100532.28
2023-01-20T05:42:02.835Z,100557.16
2023-01-20T05:47:04.385Z,100565.47
2023-01-20T05:52:20.888Z,100575.00
2023-01-20T05:57:25.387Z,100586.66
2023-01-20T06:02:26.837Z,100592.94
2023-01-20T06:07:29.341Z,100607.81
2023-01-20T06:12:30.806Z,100611.97
2023-01-20T06:17:32.276Z,100627.16
2023-01-20T06:22:33.739Z,100632.97
2023-01-20T06:27:35.221Z,100629.78
2023-01-20T06:32:36.672Z,100638.56
2023-01-20T06:37:38.142Z,100666.09
2023-01-20T06:42:39.604Z,100663.63
2023-01-20T06:47:41.072Z,100661.00
2023-01-20T06:52:42.645Z,100671.44
2023-01-20T06:57:44.109Z,100682.75
2023-01-20T07:02:45.643Z,100682.38
2023-01-20T07:07:47.143Z,100699.63
2023-01-20T07:12:48.613Z,100716.03
2023-01-20T07:17:50.075Z,100725.84
2023-01-20T07:22:51.546Z,100734.59
2023-01-20T07:27:53.228Z,100745.19
2023-01-20T07:32:54.688Z,100747.13
2023-01-20T07:37:56.167Z,100758.16
2023-01-20T07:42:57.632Z,100768.97
2023-01-20T07:47:59.134Z,100779.16
2023-01-20T07:53:00.615Z,100780.09
2023-01-20T07:58:02.291Z,100803.94
2023-01-20T08:03:03.788Z,100801.16
2023-01-20T08:08:05.368Z,100811.44
2023-01-20T08:13:06.831Z,100823.41
2023-01-20T08:18:08.298Z,100849.25
2023-01-20T08:23:09.768Z,100850.22
2023-01-20T08:28:11.262Z,100855.91
2023-01-20T08:33:12.724Z,100863.25
2023-01-20T08:38:14.181Z,100886.34
2023-01-20T08:43:15.902Z,100886.22
2023-01-20T08:48:19.868Z,100899.28
2023-01-20T08:53:21.341Z,100914.03
2023-01-20T08:58:25.209Z,100922.66
2023-01-20T09:03:27.052Z,100924.69
2023-01-20T09:08:29.548Z,100942.06
2023-01-20T09:13:31.053Z,100952.94
2023-01-20T09:18:33.089Z,100958.53
2023-01-20T09:23:35.101Z,100974.50
2023-01-20T09:28:36.773Z,100983.22
2023-01-20T09:33:39.079Z,100990.22
2023-01-20T09:38:59.134Z,100995.69
2023-01-20T09:44:26.599Z,101003.53
2023-01-20T09:49:58.170Z,101012.84
2023-01-20T09:55:03.134Z,101025.72
2023-01-20T10:00:10.076Z,101034.22
2023-01-20T10:05:13.354Z,101039.28
2023-01-20T10:10:19.613Z,101046.78
2023-01-20T10:15:26.662Z,101053.06
2023-01-20T10:20:41.442Z,101058.53
2023-01-20T10:25:49.125Z,101062.13
2023-01-20T10:30:50.666Z,101065.78
2023-01-20T10:35:53.442Z,101071.84
2023-01-20T10:41:02.723Z,101077.19
2023-01-20T10:46:33.572Z,101092.56
2023-01-20T10:51:51.091Z,101110.97
2023-01-20T10:56:53.854Z,101113.31
2023-01-20T11:02:06.230Z,101123.88
2023-01-20T11:07:15.255Z,101112.69
2023-01-20T11:12:18.475Z,101123.09
2023-01-20T11:17:20.477Z,101115.63
2023-01-20T11:22:30.839Z,101120.31
2023-01-20T11:27:36.911Z,101128.16
2023-01-20T11:32:40.065Z,101146.31
2023-01-20T11:37:41.545Z,101148.22
2023-01-20T11:42:44.851Z,101163.59
2023-01-20T11:47:46.345Z,101157.09
2023-01-20T11:52:47.809Z,101161.47
2023-01-20T11:57:53.997Z,101170.94
2023-01-20T12:03:10.607Z,101178.06
2023-01-20T12:08:17.937Z,101181.09
2023-01-20T12:13:27.760Z,101177.47
2023-01-20T12:18:38.943Z,101182.81
2023-01-20T12:23:51.425Z,101192.22
2023-01-20T12:28:59.841Z,101191.78
2023-01-20T12:34:03.374Z,101187.22
2023-01-20T12:39:35.613Z,101195.22
2023-01-20T12:44:58.043Z,101199.91
2023-01-20T12:50:25.580Z,101203.75
2023-01-20T12:55:29.905Z,101212.91
2023-01-20T13:00:49.544Z,101220.09
2023-01-20T13:06:27.591Z,101226.72
2023-01-20T13:11:41.646Z,101240.84
2023-01-20T13:16:45.084Z,101254.13
2023-01-20T13:21:56.541Z,101270.63
2023-01-20T13:27:04.553Z,101269.59
2023-01-20T13:32:33.808Z,101279.53
2023-01-20T13:37:36.605Z,101290.34
2023-01-20T13:42:37.923Z,101308.88
2023-01-20T13:47:58.005Z,101297.28
2023-01-20T13:53:06.157Z,101310.13
2023-01-20T13:58:23.649Z,101312.44
2023-01-20T14:03:27.766Z,101331.13
2023-01-20T14:08:30.846Z,101348.47
2023-01-20T14:13:32.313Z,101350.06
2023-01-20T14:18:33.879Z,101356.19
2023-01-20T14:23:37.008Z,101361.19
2023-01-20T14:28:45.028Z,101368.94
2023-01-20T14:33:58.517Z,101391.59
2023-01-20T14:39:03.795Z,101403.69
2023-01-20T14:44:15.927Z,101408.84
2023-01-20T14:49:18.739Z,101429.34
2023-01-20T14:54:31.075Z,101439.06
2023-01-20T14:59:32.917Z,101449.97
2023-01-20T15:04:36.064Z,101451.53
2023-01-20T15:09:41.499Z,101468.84
2023-01-20T15:14:42.988Z,101480.69
2023-01-20T15:19:46.257Z,101490.63
2023-01-20T15:24:49.354Z,101497.53
2023-01-20T15:30:00.708Z,101514.09
2023-01-20T15:35:02.269Z,101518.28
2023-01-20T15:40:03.909Z,101529.44
2023-01-20T15:45:05.633Z,101543.16
2023-01-20T15:50:17.355Z,101567.16
2023-01-20T15:55:19.381Z,101590.47
2023-01-20T16:00:22.437Z,101598.41
2023-01-20T16:05:25.133Z,101599.84
2023-01-20T16:10:26.593Z,101619.72
2023-01-20T16:15:28.070Z,101615.19
2023-01-20T16:20:29.562Z,101621.44
2023-01-20T16:25:31.078Z,101641.94
2023-01-20T16:30:32.559Z,101650.59
2023-01-20T16:35:34.023Z,101658.28
2023-01-20T16:40:36.190Z,101673.16
2023-01-20T16:45:37.869Z,101683.16
2023-01-20T16:50:39.352Z,101710.84
2023-01-20T16:55:47.177Z,101722.88
2023-01-20T17:00:48.874Z,101729.66
2023-01-20T17:05:50.359Z,101738.13
2023-01-20T17:10:51.820Z,101743.53
2023-01-20T17:15:53.278Z,101738.44
2023-01-20T17:20:54.757Z,101750.31
2023-01-20T17:25:56.233Z,101749.47
2023-01-20T17:31:04.605Z,101772.59
2023-01-20T17:36:06.331Z,101775.13
2023-01-20T17:41:07.817Z,101788.13
2023-01-20T17:46:17.188Z,101794.09
2023-01-20T17:51:20.342Z,101797.59
2023-01-20T17:56:22.157Z,101792.47
2023-01-20T18:01:27.891Z,101806.34
2023-01-20T18:06:30.457Z,101805.63
2023-01-20T18:11:35.835Z,101803.13
2023-01-20T18:16:38.990Z,101811.88
2023-01-20T18:21:41.307Z,101818.88
2023-01-20T18:26:43.044Z,101824.91
2023-01-20T18:31:46.418Z,101836.88
2023-01-20T18:36:49.177Z,101842.91
2023-01-20T18:41:50.735Z,101849.81
2023-01-20T18:46:52.223Z,101848.09
2023-01-20T18:51:53.710Z,101856.59
2023-01-20T18:56:55.185Z,101855.78
2023-01-20T19:01:58.398Z,101872.13
2023-01-20T19:06:59.895Z,101866.94
2023-01-20T19:12:01.439Z,101866.91
2023-01-20T19:17:02.906Z,101878.97
2023-01-20T19:22:04.382Z,101878.03
2023-01-20T19:27:05.847Z,101893.41
2023-01-20T19:32:07.945Z,101896.81
2023-01-20T19:37:09.448Z,101904.50
2023-01-20T19:42:10.918Z,101918.50
2023-01-20T19:47:12.377Z,101933.06
2023-01-20T19:52:13.859Z,101949.38
2023-01-20T19:57:15.317Z,101945.00
2023-01-20T20:02:16.769Z,101964.81
2023-01-20T20:07:18.225Z,101966.50
2023-01-20T20:12:19.697Z,101967.34
2023-01-20T20:17:21.303Z,101972.63
2023-01-20T20:22:22.768Z,101987.28
2023-01-20T20:27:24.249Z,101990.69
2023-01-20T20:32:27.367Z,102003.59
2023-01-20T20:37:28.961Z,102016.53
2023-01-20T20:42:30.458Z,102022.56
2023-01-20T20:47:32.562Z,102029.38
2023-01-20T20:52:34.023Z,102042.28
2023-01-20T20:57:35.514Z,102051.78
2023-01-20T21:02:39.610Z,102050.88
2023-01-20T21:07:41.142Z,102063.81
2023-01-20T21:12:43.677Z,102079.28
2023-01-20T21:17:45.357Z,102073.25
2023-01-20T21:22:46.829Z,102075.84
2023-01-20T21:27:48.296Z,102080.09
2023-01-20T21:32:54.023Z,102084.44
2023-01-20T21:37:55.493Z,102088.72
2023-01-20T21:43:16.922Z,102093.00
2023-01-20T21:48:36.646Z,102098.97
2023-01-20T21:53:38.166Z,102102.44
2023-01-20T21:58:39.624Z,102120.56
2023-01-20T22:03:41.098Z,102117.97
2023-01-20T22:08:42.567Z,102125.72
2023-01-20T22:13:44.087Z,102128.28
2023-01-20T22:18:45.728Z,102132.59
2023-01-20T22:23:47.269Z,102145.50
2023-01-20T22:28:48.741Z,102158.44
2023-01-20T22:33:53.624Z,102152.41
2023-01-20T22:38:55.118Z,102156.75
2023-01-20T22:43:56.681Z,102165.34
2023-01-20T22:48:58.235Z,102185.13
2023-01-20T22:54:00.488Z,102182.47
2023-01-20T22:59:01.947Z,102185.09
2023-01-20T23:04:04.850Z,102188.53
2023-01-20T23:09:08.640Z,102198.84
2023-01-20T23:14:12.837Z,102191.84
2023-01-20T23:19:14.421Z,102196.13
2023-01-20T23:24:15.881Z,102202.19
2023-01-20T23:29:17.343Z,102210.69
2023-01-20T23:34:18.809Z,102219.44
2023-01-20T23:39:20.281Z,102225.47
2023-01-20T23:44:21.757Z,102242.53
2023-01-20T23:49:23.222Z,102237.47
2023-01-20T23:54:24.677Z,102244.97
2023-01-20T23:59:26.160Z,102259.81
